createdAt,value
2023-05-12T00:00:58.137Z,0
2023-05-12T00:03:57.717Z,0.3333333333333333
2023-05-12T00:06:57.652Z,0
2023-05-12T00:09:57.279Z,0
2023-05-12T00:12:56.925Z,0
2023-05-12T00:15:57.573Z,0
2023-05-12T00:18:57.504Z,0
2023-05-12T00:21:57.033Z,0
2023-05-12T00:24:57.288Z,0.3333333333333333
2023-05-12T00:27:57.692Z,0
2023-05-12T00:30:57.523Z,0
2023-05-12T00:33:56.865Z,0
2023-05-12T00:36:57.333Z,0
2023-05-12T00:39:57.197Z,0
2023-05-12T00:42:57.925Z,0
2023-05-12T00:45:57.384Z,0
2023-05-12T00:48:57.896Z,0
2023-05-12T00:51:57.162Z,0
2023-05-12T00:54:58.045Z,0
2023-05-12T00:57:57.016Z,0
2023-05-12T01:00:57.321Z,0
2023-05-12T01:03:56.887Z,0
2023-05-12T01:06:57.341Z,0.6666666666666666
2023-05-12T01:09:58.059Z,0
2023-05-12T01:12:57.806Z,0
2023-05-12T01:15:57.602Z,0
2023-05-12T01:18:57.083Z,0
2023-05-12T01:21:57.979Z,0
2023-05-12T01:24:56.685Z,0
2023-05-12T01:27:57.501Z,0
2023-05-12T01:30:57.583Z,0
2023-05-12T01:33:57.486Z,0
2023-05-12T01:36:57.252Z,0
2023-05-12T01:39:57.500Z,0
2023-05-12T01:42:57.535Z,0
2023-05-12T01:45:57.350Z,0
2023-05-12T01:48:57.353Z,0.3333333333333333
2023-05-12T01:51:57.555Z,0
2023-05-12T01:54:57.516Z,0
2023-05-12T01:57:57.319Z,0
2023-05-12T02:00:57.677Z,0
2023-05-12T02:03:57.991Z,0
2023-05-12T02:06:57.066Z,0
2023-05-12T02:09:57.273Z,0
2023-05-12T02:12:57.736Z,0
2023-05-12T02:15:57.578Z,0
2023-05-12T02:18:56.990Z,0
2023-05-12T02:21:57.241Z,0.3333333333333333
2023-05-12T02:24:57.407Z,0
2023-05-12T02:27:57.328Z,0
2023-05-12T02:30:56.974Z,0
2023-05-12T02:33:56.700Z,0
2023-05-12T02:36:57.554Z,0
2023-05-12T02:39:57.336Z,0
2023-05-12T02:42:57.540Z,0
2023-05-12T02:45:57.585Z,0
2023-05-12T02:48:57.546Z,0
2023-05-12T02:51:57.497Z,0
2023-05-12T02:54:57.218Z,0
2023-05-12T02:57:58.193Z,0
2023-05-12T03:01:09.401Z,0
2023-05-12T03:03:57.351Z,0.3333333333333333
2023-05-12T03:06:57.810Z,0.3333333333333333
2023-05-12T03:09:57.375Z,0
2023-05-12T03:12:57.319Z,0
2023-05-12T03:15:58.285Z,0
2023-05-12T03:18:57.336Z,0
2023-05-12T03:21:57.422Z,0
2023-05-12T03:24:57.021Z,0
2023-05-12T03:27:57.488Z,1
2023-05-12T03:30:57.996Z,1.6666666666666667
2023-05-12T03:33:56.945Z,2.6666666666666665
2023-05-12T03:36:56.929Z,4
2023-05-12T03:39:57.531Z,5.333333333333333
2023-05-12T03:42:57.045Z,6.666666666666667
2023-05-12T03:45:57.941Z,9.666666666666666
2023-05-12T03:48:57.522Z,12.333333333333334
2023-05-12T03:51:56.997Z,13.666666666666666
2023-05-12T03:54:57.769Z,13.333333333333334
2023-05-12T03:57:57.124Z,12
2023-05-12T04:00:57.863Z,12
2023-05-12T04:03:57.535Z,12.666666666666666
2023-05-12T04:06:57.546Z,15
2023-05-12T04:09:57.809Z,14.666666666666666
2023-05-12T04:12:57.351Z,15
2023-05-12T04:15:57.207Z,18
2023-05-12T04:18:58.225Z,17.666666666666668
2023-05-12T04:21:57.531Z,21.333333333333332
2023-05-12T04:24:57.458Z,29
2023-05-12T04:27:56.904Z,38
2023-05-12T04:30:57.074Z,48
2023-05-12T04:33:58.066Z,57
2023-05-12T04:36:56.869Z,64.33333333333333
2023-05-12T04:39:57.801Z,66.66666666666667
2023-05-12T04:42:57.714Z,57
2023-05-12T04:46:00.052Z,48.333333333333336
2023-05-12T04:48:57.822Z,43
2023-05-12T04:51:57.717Z,44.333333333333336
2023-05-12T04:54:56.915Z,46.333333333333336
2023-05-12T04:57:57.578Z,51
2023-05-12T05:00:57.622Z,63
2023-05-12T05:03:57.392Z,65
2023-05-12T05:06:57.430Z,64.33333333333333
2023-05-12T05:09:57.751Z,66.33333333333333
2023-05-12T05:12:57.217Z,75.66666666666667
2023-05-12T05:15:57.644Z,75.66666666666667
2023-05-12T05:18:58.621Z,80.33333333333333
2023-05-12T05:21:57.910Z,81.66666666666667
2023-05-12T05:24:57.500Z,98.66666666666667
2023-05-12T05:27:57.859Z,110
2023-05-12T05:30:58.289Z,137
2023-05-12T05:33:57.912Z,151.66666666666666
2023-05-12T05:36:57.097Z,198.33333333333334
2023-05-12T05:39:57.528Z,205.33333333333334
2023-05-12T05:42:57.939Z,210.33333333333334
2023-05-12T05:45:57.910Z,219.66666666666666
2023-05-12T05:48:57.901Z,230.66666666666666
2023-05-12T05:51:57.716Z,231.66666666666666
2023-05-12T05:54:57.577Z,219.33333333333334
2023-05-12T05:57:57.789Z,178.33333333333334
2023-05-12T06:00:58.100Z,146
2023-05-12T06:03:58.306Z,158.66666666666666
2023-05-12T06:06:57.313Z,156.33333333333334
2023-05-12T06:09:57.716Z,157.33333333333334
2023-05-12T06:12:56.948Z,159
2023-05-12T06:15:57.549Z,176.33333333333334
2023-05-12T06:18:57.387Z,102
2023-05-12T06:21:57.764Z,85
2023-05-12T06:24:57.973Z,92
2023-05-12T06:27:57.875Z,111
2023-05-12T06:30:57.972Z,170.33333333333334
2023-05-12T06:33:56.672Z,178.66666666666666
2023-05-12T06:36:57.160Z,183.66666666666666
2023-05-12T06:39:58.167Z,209.66666666666666
2023-05-12T06:42:57.296Z,272
2023-05-12T06:45:57.292Z,388.6666666666667
2023-05-12T06:48:57.438Z,374
2023-05-12T06:51:56.956Z,286.6666666666667
2023-05-12T06:54:57.027Z,239
2023-05-12T06:57:57.308Z,286.6666666666667
2023-05-12T07:00:57.234Z,333.6666666666667
2023-05-12T07:03:57.976Z,363
2023-05-12T07:06:57.862Z,401.6666666666667
2023-05-12T07:09:57.358Z,350
2023-05-12T07:12:57.284Z,415.6666666666667
2023-05-12T07:15:56.938Z,383.3333333333333
2023-05-12T07:18:57.051Z,303
2023-05-12T07:21:57.606Z,209.66666666666666
2023-05-12T07:24:57.604Z,234.33333333333334
2023-05-12T07:27:57.357Z,257.3333333333333
2023-05-12T07:30:57.107Z,252
2023-05-12T07:33:57.836Z,409
2023-05-12T07:36:57.543Z,481
2023-05-12T07:39:57.668Z,475.3333333333333
2023-05-12T07:42:57.516Z,523.6666666666666
2023-05-12T07:45:56.941Z,518.6666666666666
2023-05-12T07:48:57.395Z,564.3333333333334
2023-05-12T07:51:57.372Z,611
2023-05-12T07:54:57.389Z,624.3333333333334
2023-05-12T07:57:57.869Z,756
2023-05-12T08:00:57.865Z,814
2023-05-12T08:03:57.231Z,835.3333333333334
2023-05-12T08:06:57.074Z,931.3333333333334
2023-05-12T08:09:57.924Z,782.6666666666666
2023-05-12T08:12:57.097Z,687
2023-05-12T08:15:57.052Z,519.6666666666666
2023-05-12T08:18:57.039Z,560.3333333333334
2023-05-12T08:21:57.193Z,596
2023-05-12T08:24:57.427Z,700.3333333333334
2023-05-12T08:27:57.422Z,880.6666666666666
2023-05-12T08:30:57.788Z,949
2023-05-12T08:34:08.916Z,953
2023-05-12T08:36:57.712Z,950
2023-05-12T08:39:57.674Z,953.6666666666666
2023-05-12T08:42:58.820Z,951.6666666666666
2023-05-12T08:45:57.132Z,956.6666666666666
2023-05-12T08:48:56.923Z,957.6666666666666
2023-05-12T08:51:58.633Z,959
2023-05-12T08:54:57.482Z,953
2023-05-12T08:57:57.164Z,950.3333333333334
2023-05-12T09:00:57.756Z,952.6666666666666
2023-05-12T09:03:57.980Z,952.3333333333334
2023-05-12T09:06:57.681Z,941
2023-05-12T09:09:57.168Z,764.6666666666666
2023-05-12T09:12:56.968Z,835.6666666666666
2023-05-12T09:15:57.170Z,750.6666666666666
2023-05-12T09:18:57.371Z,735.3333333333334
2023-05-12T09:21:57.205Z,834.6666666666666
2023-05-12T09:24:57.887Z,883.3333333333334
2023-05-12T09:27:57.590Z,851.6666666666666
2023-05-12T09:30:57.567Z,580
2023-05-12T09:33:56.956Z,495.6666666666667
2023-05-12T09:36:57.731Z,513.6666666666666
2023-05-12T09:39:57.758Z,743
2023-05-12T09:42:57.153Z,820.6666666666666
2023-05-12T09:45:57.310Z,715.3333333333334
2023-05-12T09:48:57.613Z,513
2023-05-12T09:51:57.323Z,569
2023-05-12T09:54:57.217Z,536.6666666666666
2023-05-12T09:57:56.944Z,508.3333333333333
2023-05-12T10:01:20.934Z,557.6666666666666
2023-05-12T10:03:57.468Z,523.6666666666666
2023-05-12T10:06:57.517Z,543.6666666666666
2023-05-12T10:09:57.764Z,663.3333333333334
2023-05-12T10:12:57.631Z,750.3333333333334
2023-05-12T10:15:57.083Z,770
2023-05-12T10:18:57.690Z,752.6666666666666
2023-05-12T10:21:57.417Z,748.6666666666666
2023-05-12T10:24:57.319Z,657.6666666666666
2023-05-12T10:27:57.166Z,565
2023-05-12T10:30:57.529Z,436.6666666666667
2023-05-12T10:33:57.974Z,247
2023-05-12T10:36:57.068Z,164.66666666666666
2023-05-12T10:39:57.741Z,123.33333333333333
2023-05-12T10:42:57.507Z,127.33333333333333
2023-05-12T10:45:57.511Z,136.66666666666666
2023-05-12T10:48:57.086Z,138
2023-05-12T10:51:57.804Z,157.66666666666666
2023-05-12T10:54:57.846Z,178
2023-05-12T10:57:57.903Z,215.66666666666666
2023-05-12T11:00:58.684Z,268.3333333333333
2023-05-12T11:04:16.339Z,339.3333333333333
2023-05-12T11:06:57.742Z,401.6666666666667
2023-05-12T11:09:59.820Z,465
2023-05-12T11:12:56.951Z,526.6666666666666
2023-05-12T11:15:57.425Z,562.6666666666666
2023-05-12T11:18:57.354Z,599.6666666666666
2023-05-12T11:21:57.442Z,593.6666666666666
2023-05-12T11:24:57.513Z,491.3333333333333
2023-05-12T11:27:57.477Z,308.3333333333333
2023-05-12T11:30:57.960Z,223.66666666666666
2023-05-12T11:34:10.893Z,178
2023-05-12T11:36:57.622Z,166
2023-05-12T11:39:58.035Z,173.33333333333334
2023-05-12T11:42:57.687Z,206
2023-05-12T11:45:57.296Z,228
2023-05-12T11:48:57.138Z,259.6666666666667
2023-05-12T11:51:57.511Z,301.6666666666667
2023-05-12T11:54:58.059Z,393
2023-05-12T11:57:57.850Z,539.6666666666666
2023-05-12T12:00:57.791Z,596.3333333333334
2023-05-12T12:03:57.855Z,621.6666666666666
2023-05-12T12:06:57.844Z,651.6666666666666
2023-05-12T12:09:57.031Z,632.6666666666666
2023-05-12T12:12:57.758Z,633.6666666666666
2023-05-12T12:15:57.382Z,607.3333333333334
2023-05-12T12:18:57.766Z,358.6666666666667
2023-05-12T12:21:58.058Z,268.3333333333333
2023-05-12T12:24:57.145Z,233
2023-05-12T12:27:57.798Z,185
2023-05-12T12:30:57.976Z,154.33333333333334
2023-05-12T12:33:57.588Z,138
2023-05-12T12:36:56.977Z,189
2023-05-12T12:39:58.094Z,224.66666666666666
2023-05-12T12:42:57.202Z,212.66666666666666
2023-05-12T12:45:57.716Z,211.66666666666666
2023-05-12T12:48:57.202Z,181
2023-05-12T12:51:57.335Z,176.33333333333334
2023-05-12T12:54:57.404Z,222
2023-05-12T12:57:57.161Z,260.3333333333333
2023-05-12T13:00:57.978Z,293.3333333333333
2023-05-12T13:03:57.027Z,338.3333333333333
2023-05-12T13:06:57.440Z,455.6666666666667
2023-05-12T13:09:57.792Z,563.6666666666666
2023-05-12T13:12:57.504Z,579.3333333333334
2023-05-12T13:15:57.140Z,647.6666666666666
2023-05-12T13:18:58.229Z,599.6666666666666
2023-05-12T13:21:57.628Z,584.6666666666666
2023-05-12T13:24:57.682Z,514
2023-05-12T13:27:57.820Z,616
2023-05-12T13:30:57.740Z,670.3333333333334
2023-05-12T13:33:57.604Z,712
2023-05-12T13:36:57.492Z,725.6666666666666
2023-05-12T13:39:58.043Z,667
2023-05-12T13:42:57.558Z,566.3333333333334
2023-05-12T13:45:58.030Z,561
2023-05-12T13:48:57.686Z,481.3333333333333
2023-05-12T13:51:57.422Z,352
2023-05-12T13:54:57.479Z,391
2023-05-12T13:57:57.679Z,445.3333333333333
2023-05-12T14:00:58.092Z,580.6666666666666
2023-05-12T14:03:57.290Z,673.6666666666666
2023-05-12T14:06:57.049Z,744.6666666666666
2023-05-12T14:09:57.550Z,743.3333333333334
2023-05-12T14:12:57.677Z,797
2023-05-12T14:15:57.925Z,786.6666666666666
2023-05-12T14:18:57.751Z,895.6666666666666
2023-05-12T14:21:56.989Z,934
2023-05-12T14:24:57.999Z,916
2023-05-12T14:27:57.593Z,779.6666666666666
2023-05-12T14:30:57.477Z,558.3333333333334
2023-05-12T14:33:57.733Z,375.3333333333333
2023-05-12T14:36:57.479Z,269
2023-05-12T14:39:57.778Z,210.33333333333334
2023-05-12T14:42:57.709Z,161.66666666666666
2023-05-12T14:45:57.656Z,147.33333333333334
2023-05-12T14:48:57.529Z,120.33333333333333
2023-05-12T14:51:57.526Z,103
2023-05-12T14:54:57.844Z,108.33333333333333
2023-05-12T14:57:57.336Z,155
2023-05-12T15:00:57.365Z,218.66666666666666
2023-05-12T15:03:57.842Z,260.3333333333333
2023-05-12T15:06:57.362Z,304
2023-05-12T15:09:57.835Z,342
2023-05-12T15:12:57.193Z,382
2023-05-12T15:15:57.328Z,426
2023-05-12T15:18:57.328Z,467
2023-05-12T15:21:57.519Z,490.6666666666667
2023-05-12T15:24:57.518Z,489.6666666666667
2023-05-12T15:27:57.353Z,402
2023-05-12T15:30:57.450Z,355.3333333333333
2023-05-12T15:33:57.046Z,375
2023-05-12T15:36:58.491Z,386.3333333333333
2023-05-12T15:39:57.824Z,295
2023-05-12T15:42:57.563Z,210.66666666666666
2023-05-12T15:45:58.569Z,211.33333333333334
2023-05-12T15:48:57.243Z,152.66666666666666
2023-05-12T15:51:58.129Z,95.66666666666667
2023-05-12T15:54:57.455Z,100.33333333333333
2023-05-12T15:57:57.598Z,92
2023-05-12T16:00:58.382Z,84
2023-05-12T16:03:57.526Z,64.66666666666667
2023-05-12T16:06:58.061Z,79.33333333333333
2023-05-12T16:09:58.024Z,92
2023-05-12T16:12:58.141Z,88
2023-05-12T16:15:57.843Z,120.33333333333333
2023-05-12T16:18:57.993Z,150.66666666666666
2023-05-12T16:21:57.047Z,189.33333333333334
2023-05-12T16:24:57.384Z,215.66666666666666
2023-05-12T16:27:57.647Z,229.33333333333334
2023-05-12T16:30:57.999Z,209
2023-05-12T16:33:57.773Z,275.3333333333333
2023-05-12T16:36:57.605Z,309.6666666666667
2023-05-12T16:39:57.898Z,317
2023-05-12T16:42:57.536Z,282.3333333333333
2023-05-12T16:45:57.525Z,268.6666666666667
2023-05-12T16:48:58.038Z,308
2023-05-12T16:51:57.154Z,293
2023-05-12T16:54:57.393Z,299
2023-05-12T16:57:57.752Z,302.3333333333333
2023-05-12T17:00:57.414Z,280.3333333333333
2023-05-12T17:03:57.097Z,278.3333333333333
2023-05-12T17:06:57.825Z,276
2023-05-12T17:09:58.404Z,273.3333333333333
2023-05-12T17:12:57.792Z,246
2023-05-12T17:15:57.950Z,191.66666666666666
2023-05-12T17:21:57.388Z,111
2023-05-12T17:24:58.182Z,68.33333333333333
2023-05-12T17:27:57.620Z,62
2023-05-12T17:30:57.592Z,83.66666666666667
2023-05-12T17:33:57.445Z,141
2023-05-12T17:36:57.478Z,209.33333333333334
2023-05-12T17:39:57.290Z,222
2023-05-12T17:42:57.792Z,210
2023-05-12T17:45:57.645Z,172
2023-05-12T17:48:57.184Z,128.33333333333334
2023-05-12T17:51:57.496Z,93
2023-05-12T17:54:57.471Z,71
2023-05-12T17:57:57.312Z,39.666666666666664
2023-05-12T18:00:58.301Z,27
2023-05-12T18:03:57.871Z,20
2023-05-12T18:06:57.815Z,19
2023-05-12T18:09:58.034Z,21.666666666666668
2023-05-12T18:12:57.202Z,14
2023-05-12T18:15:57.704Z,12.333333333333334
2023-05-12T18:18:58.019Z,12.666666666666666
2023-05-12T18:21:57.348Z,10.666666666666666
2023-05-12T18:24:57.029Z,7
2023-05-12T18:27:58.031Z,7.333333333333333
2023-05-12T18:31:00.260Z,7.666666666666667
2023-05-12T18:33:57.900Z,7.666666666666667
2023-05-12T18:36:57.896Z,7.666666666666667
2023-05-12T18:39:57.955Z,6.333333333333333
2023-05-12T18:42:58.257Z,5.333333333333333
2023-05-12T18:45:57.389Z,7
2023-05-12T18:48:57.498Z,5.333333333333333
2023-05-12T18:51:57.055Z,5.666666666666667
2023-05-12T18:54:57.271Z,6
2023-05-12T18:57:57.219Z,5.666666666666667
2023-05-12T19:01:26.098Z,5
2023-05-12T19:03:56.816Z,3.6666666666666665
2023-05-12T19:06:58.046Z,2
2023-05-12T19:09:58.071Z,1
2023-05-12T19:12:57.062Z,0
2023-05-12T19:15:57.874Z,0
2023-05-12T19:18:57.288Z,1
2023-05-12T19:21:57.885Z,0
2023-05-12T19:24:57.219Z,0
2023-05-12T19:27:57.059Z,0.3333333333333333
2023-05-12T19:30:57.749Z,0
2023-05-12T19:33:57.507Z,0
2023-05-12T19:36:57.421Z,0
2023-05-12T19:39:57.561Z,0
2023-05-12T19:42:57.702Z,0
2023-05-12T19:45:57.910Z,0
2023-05-12T19:48:57.566Z,0.3333333333333333
2023-05-12T19:51:57.495Z,0
2023-05-12T19:54:57.350Z,0
2023-05-12T19:57:58.227Z,0
2023-05-12T20:00:57.658Z,0
2023-05-12T20:03:57.779Z,0
2023-05-12T20:06:57.631Z,0
2023-05-12T20:09:57.432Z,0
2023-05-12T20:12:57.442Z,0.3333333333333333
2023-05-12T20:15:56.984Z,0
2023-05-12T20:18:57.658Z,0
2023-05-12T20:21:57.769Z,0
2023-05-12T20:24:57.512Z,0
2023-05-12T20:27:57.620Z,0
2023-05-12T20:30:57.987Z,0
2023-05-12T20:33:57.559Z,0
2023-05-12T20:36:57.804Z,0
2023-05-12T20:39:57.728Z,0
2023-05-12T20:42:57.564Z,0
2023-05-12T20:45:57.361Z,0.3333333333333333
2023-05-12T20:48:57.600Z,0
2023-05-12T20:51:57.412Z,0
2023-05-12T20:54:57.948Z,0
2023-05-12T20:57:57.097Z,0.3333333333333333
2023-05-12T21:00:58.601Z,0
2023-05-12T21:03:57.439Z,0
2023-05-12T21:06:57.016Z,0
2023-05-12T21:09:57.900Z,0
2023-05-12T21:12:57.569Z,0
2023-05-12T21:15:57.300Z,0
2023-05-12T21:18:57.620Z,0.6666666666666666
2023-05-12T21:21:57.486Z,0
2023-05-12T21:24:58.041Z,0
2023-05-12T21:27:57.754Z,0.6666666666666666
2023-05-12T21:30:57.577Z,0
2023-05-12T21:33:57.203Z,0
2023-05-12T21:36:56.960Z,0
2023-05-12T21:39:57.814Z,0
2023-05-12T21:42:57.647Z,0
2023-05-12T21:45:57.771Z,0
2023-05-12T21:48:57.034Z,0
2023-05-12T21:51:58.062Z,0
2023-05-12T21:54:57.924Z,0.3333333333333333
2023-05-12T21:57:58.174Z,0
2023-05-12T22:00:58.444Z,0
2023-05-12T22:03:57.461Z,0
2023-05-12T22:06:57.526Z,0
2023-05-12T22:09:56.938Z,0
2023-05-12T22:12:57.384Z,0
2023-05-12T22:15:57.299Z,0
2023-05-12T22:18:57.308Z,0
2023-05-12T22:21:57.261Z,0
2023-05-12T22:24:57.496Z,0
2023-05-12T22:27:57.271Z,0
2023-05-12T22:30:57.334Z,0
2023-05-12T22:33:57.444Z,0
2023-05-12T22:36:57.129Z,0
2023-05-12T22:39:57.082Z,0
2023-05-12T22:42:57.828Z,0
2023-05-12T22:45:56.811Z,0
2023-05-12T22:48:57.172Z,0
2023-05-12T22:51:57.311Z,0.3333333333333333
2023-05-12T22:54:56.774Z,0
2023-05-12T22:57:57.783Z,0
2023-05-12T23:00:58.441Z,0
2023-05-12T23:03:56.975Z,0
2023-05-12T23:06:57.465Z,0
2023-05-12T23:09:56.962Z,0
2023-05-12T23:12:57.685Z,0
2023-05-12T23:15:57.187Z,0
2023-05-12T23:18:56.937Z,0
2023-05-12T23:21:57.549Z,0
2023-05-12T23:24:57.412Z,0
2023-05-12T23:27:57.310Z,0
2023-05-12T23:30:57.816Z,0
2023-05-12T23:33:57.246Z,0
2023-05-12T23:36:57.481Z,0
2023-05-12T23:39:57.535Z,0
2023-05-12T23:42:57.118Z,0
2023-05-12T23:45:57.627Z,0
2023-05-12T23:48:57.348Z,0
2023-05-12T23:51:56.835Z,0
2023-05-12T23:54:57.012Z,0
2023-05-12T23:57:57.572Z,0
